Portada
METAR-TAF:

METAR-TAF

Aeropuertos :

Seyresse

Dax, Francia

latitud: 43-41N, longitud: 001-04W, altitud: 32 m

Observación

El informe se hizo hace 15 minutos, a las 04:00 UTC
Viento 3 kt del noroeste, variando entre oeste y norte
Temperatura 19°C
Humedad 88%
Presión 1014 hPa
Visibilidad: 5000 m

METAR: LFBY 300400Z AUTO 31003KT 260V010 5000 // ////// 19/17 Q1014

Hora: 06:15 (04:15 UTC)


TAF: falta

Observaciones y pronósticos meteorológicos de más de 4000 aeropuertos (mensajes METAR y TAF).

Los puntos amarillos y rojos representan las estaciones disponibles.

Ponga el ratón en el punto deseado para ver el nombre de la estación.

Haga clic para ver las observaciones y los pronósticos meteorológicos.

Para cambiar el mapa : haga clic en los botones verdes con una cruz de color negro para hacer un zoom, en el botón verde con un guión para alejar o en las flechas verdes para mapas adyacentes.


METAR-TAF: